Time;durP1;ratioP1;P1;durP2;ratioP2;P2;SDS_P1;SDS_P2;PMS_P1;PMS_P2;Temp;Humidity;BMP_temperature;BMP_pressure;BME280_temperature;BME280_humidity;BME280_pressure;Samples;Min_cycle;Max_cycle;Signal;HPM_P1;HPM_P2
2021/11/17 02:28:26;;;;;;;129.32;37.15;;;5.80;99.90;;;4.16;100.00;100861.25;4888493;28;20062;-77
2021/11/17 02:31:37;;;;;;;150.07;37.67;;;5.80;99.90;;;4.15;100.00;100872.56;4918643;28;20030;-76
2021/11/17 02:34:29;;;;;;;131.50;45.55;;;5.80;99.90;;;4.17;100.00;100865.59;4900568;28;21589;-77
2021/11/17 02:37:31;;;;;;;161.10;64.70;;;5.80;99.90;;;4.17;100.00;100863.00;4923788;28;20039;-76
2021/11/17 02:40:34;;;;;;;108.70;30.02;;;5.90;99.90;;;4.19;100.00;100868.16;4910275;28;20551;-76
2021/11/17 02:43:10;;;;;;;120.75;31.85;;;5.80;99.90;;;4.16;100.00;100869.06;4924979;28;20027;-76
2021/11/17 02:45:45;;;;;;;139.40;32.70;;;5.80;99.90;;;4.19;100.00;100871.63;4926769;28;20557;-76
2021/11/17 02:48:26;;;;;;;112.22;28.08;;;5.80;99.90;;;4.19;100.00;100869.03;4912113;28;20439;-77
2021/11/17 02:51:28;;;;;;;127.55;29.65;;;5.90;99.90;;;4.23;100.00;100870.69;4937915;28;20105;-76
2021/11/17 02:54:46;;;;;;;119.47;28.80;;;5.90;99.90;;;4.20;100.00;100873.34;4906515;28;20030;-76
2021/11/17 02:57:42;;;;;;;106.20;26.70;;;5.90;99.90;;;4.21;100.00;100877.69;4891263;28;20507;-76
2021/11/17 03:00:22;;;;;;;99.82;24.02;;;5.80;99.90;;;4.10;100.00;100853.53;4931896;28;20043;-76
2021/11/17 03:02:56;;;;;;;102.47;25.70;;;5.80;99.90;;;4.11;100.00;100868.31;4915299;28;20051;-76
2021/11/17 03:06:10;;;;;;;95.57;25.63;;;5.70;99.90;;;3.95;100.00;100849.44;4952301;28;20506;-76
2021/11/17 03:08:58;;;;;;;104.93;25.02;;;5.60;99.90;;;3.94;100.00;100841.69;4862958;29;20104;-76
2021/11/17 03:11:47;;;;;;;92.43;25.58;;;5.70;99.90;;;3.95;100.00;100833.81;4919689;28;20064;-77
2021/11/17 03:14:53;;;;;;;89.80;23.30;;;5.60;99.90;;;3.91;100.00;100837.41;4924736;28;20038;-77
2021/11/17 03:17:38;;;;;;;96.68;24.50;;;5.50;99.90;;;3.89;100.00;100823.53;4907492;28;20475;-77
2021/11/17 03:20:14;;;;;;;96.85;25.58;;;5.50;99.90;;;3.88;100.00;100821.78;4934665;28;20042;-76
2021/11/17 03:23:04;;;;;;;105.63;27.40;;;5.50;99.90;;;3.84;100.00;100822.72;4925004;28;20042;-77
2021/11/17 03:25:58;;;;;;;101.28;26.65;;;5.50;99.90;;;3.88;100.00;100817.44;4914810;28;20043;-77
2021/11/17 03:29:04;;;;;;;95.63;23.75;;;5.60;99.90;;;3.88;100.00;100813.97;4905347;28;20407;-76
2021/11/17 03:32:05;;;;;;;95.00;23.55;;;5.60;99.90;;;3.87;100.00;100805.31;4904205;28;20053;-77
2021/11/17 03:34:46;;;;;;;79.90;21.75;;;5.60;99.90;;;3.82;100.00;100795.84;4935969;28;20075;-76
2021/11/17 03:37:30;;;;;;;85.95;22.02;;;5.60;99.90;;;3.81;100.00;100795.00;4922577;28;20038;-76
2021/11/17 03:40:16;;;;;;;71.38;20.63;;;5.50;99.90;;;3.73;100.00;100791.66;4941083;28;20035;-77
2021/11/17 03:42:49;;;;;;;;;;;5.50;99.90;;;3.66;100.00;100797.88;4936170;28;20035;-77
2021/11/17 03:45:37;;;;;;;60.58;16.15;;;5.40;99.90;;;3.55;100.00;100792.00;4903179;28;19930;-76
2021/11/17 03:48:27;;;;;;;53.03;15.40;;;5.20;99.90;;;3.43;100.00;100778.28;4895763;28;20046;-77
2021/11/17 03:51:06;;;;;;;57.03;15.32;;;5.10;99.90;;;3.33;100.00;100775.88;4938078;28;20035;-76
2021/11/17 03:54:00;;;;;;;59.08;14.57;;;5.00;99.90;;;3.27;100.00;100775.06;4917635;28;20046;-76
2021/11/17 03:56:26;;;;;;;54.22;14.02;;;;;;;3.26;100.00;100777.69;4927308;28;20103;-77
2021/11/17 03:59:17;;;;;;;49.28;15.73;;;5.00;99.90;;;3.26;100.00;100781.16;4935570;28;20027;-77
2021/11/17 04:01:58;;;;;;;54.20;14.60;;;5.00;99.90;;;3.23;100.00;100781.19;4920241;28;20506;-76
2021/11/17 04:04:39;;;;;;;49.08;14.30;;;4.90;99.90;;;3.22;100.00;100781.25;4936158;28;20101;-76
2021/11/17 04:07:42;;;;;;;46.58;14.90;;;5.00;99.90;;;3.22;100.00;100776.88;4953910;28;20031;-76
2021/11/17 04:10:20;;;;;;;49.45;15.02;;;5.00;99.90;;;3.21;100.00;100787.31;4936615;28;20115;-76
2021/11/17 04:13:26;;;;;;;40.60;14.18;;;5.00;99.90;;;3.24;100.00;100795.06;4934736;28;20046;-77
2021/11/17 04:16:37;;;;;;;46.72;14.48;;;5.00;99.90;;;3.21;100.00;100792.50;4898820;28;20030;-77
2021/11/17 04:19:26;;;;;;;50.08;14.57;;;4.90;99.90;;;3.24;100.00;100801.16;4944062;28;20031;-77
2021/11/17 04:22:30;;;;;;;55.15;14.43;;;5.00;99.90;;;3.21;100.00;100797.72;4928798;28;20364;-76
2021/11/17 04:25:37;;;;;;;51.40;14.65;;;5.00;99.90;;;3.18;100.00;100801.22;4907783;28;20039;-76
2021/11/17 04:28:42;;;;;;;55.05;14.18;;;4.90;99.90;;;3.12;100.00;100792.66;4912024;29;20039;-77
2021/11/17 04:31:15;;;;;;;49.70;14.88;;;4.80;99.90;;;3.10;100.00;100791.81;4929560;28;20086;-76
2021/11/17 04:34:03;;;;;;;56.25;15.25;;;4.90;99.90;;;3.19;100.00;100802.09;4920131;28;20046;-77
2021/11/17 04:36:54;;;;;;;58.25;14.57;;;4.90;99.90;;;3.14;100.00;100790.91;4911419;28;20035;-77
2021/11/17 04:39:42;;;;;;;52.72;13.88;;;4.90;99.90;;;3.14;100.00;100796.09;4950860;28;20121;-77
2021/11/17 04:42:30;;;;;;;56.40;14.98;;;4.80;99.90;;;3.18;100.00;100789.97;4913254;28;20098;-76
2021/11/17 04:45:39;;;;;;;50.58;14.40;;;4.90;99.90;;;3.19;100.00;100789.06;4915123;28;20041;-77
2021/11/17 04:48:46;;;;;;;45.50;13.57;;;4.90;99.90;;;3.21;100.00;100782.97;4920440;28;20031;-77
2021/11/17 04:51:42;;;;;;;50.25;14.38;;;4.80;99.90;;;3.16;100.00;100781.31;4850768;28;20114;-77
2021/11/17 04:54:29;;;;;;;44.45;13.25;;;4.80;99.90;;;3.11;100.00;100770.13;4936864;28;20438;-77
2021/11/17 04:57:12;;;;;;;52.03;14.63;;;4.80;99.90;;;3.05;100.00;100769.34;4931143;28;20074;-76
2021/11/17 05:00:09;;;;;;;55.90;15.27;;;4.70;99.90;;;3.05;100.00;100771.94;4922004;28;20085;-76
2021/11/17 05:03:22;;;;;;;49.42;14.38;;;4.70;99.90;;;3.03;100.00;100768.50;4913680;28;20033;-76
2021/11/17 05:06:24;;;;;;;49.85;13.60;;;4.70;99.90;;;3.03;100.00;100784.09;4910786;28;20043;-77
2021/11/17 05:09:05;;;;;;;52.00;14.73;;;4.70;99.90;;;3.01;100.00;100783.25;4896273;28;22266;-76
2021/11/17 05:12:07;;;;;;;53.17;14.57;;;4.70;99.90;;;3.01;100.00;100783.25;4918819;28;20030;-76
2021/11/17 05:15:00;;;;;;;51.17;13.52;;;4.70;99.90;;;2.99;100.00;100779.81;4899064;28;20114;-76
2021/11/17 05:17:50;;;;;;;55.13;15.07;;;4.70;99.90;;;2.99;100.00;100769.41;4903782;28;20491;-76
2021/11/17 05:20:32;;;;;;;53.80;12.95;;;4.60;99.90;;;3.00;100.00;100776.34;4936717;28;20526;-76
2021/11/17 05:23:24;;;;;;;46.58;13.63;;;4.60;99.90;;;3.04;100.00;100769.34;4902281;28;20035;-77
2021/11/17 05:26:05;;;;;;;43.70;13.20;;;4.60;99.90;;;3.01;100.00;100772.00;4963676;28;20042;-76
2021/11/17 05:28:43;;;;;;;40.22;12.20;;;4.60;99.90;;;2.91;100.00;100755.66;4950527;28;20056;-76
2021/11/17 05:31:34;;;;;;;41.85;13.07;;;4.60;99.90;;;2.93;100.00;100758.25;4924338;28;20034;-76
2021/11/17 05:34:06;;;;;;;42.72;13.98;;;4.60;99.90;;;2.91;100.00;100753.06;4921631;28;20082;-77
2021/11/17 05:36:38;;;;;;;45.50;13.60;;;4.60;99.90;;;2.92;100.00;100744.38;4948836;28;20039;-77
2021/11/17 05:39:23;;;;;;;43.67;13.25;;;4.60;99.90;;;2.87;100.00;100733.19;4929556;28;20030;-76
2021/11/17 05:42:22;;;;;;;37.53;12.45;;;4.50;99.90;;;2.85;100.00;100734.94;4919229;28;20050;-77
2021/11/17 05:45:09;;;;;;;41.40;12.70;;;4.50;99.90;;;2.87;100.00;100727.97;4907385;28;20121;-77
2021/11/17 05:48:23;;;;;;;44.50;13.52;;;4.50;99.90;;;2.84;100.00;100725.44;4927455;28;20139;-77
2021/11/17 05:51:04;;;;;;;42.35;12.02;;;4.50;99.90;;;2.83;100.00;100724.59;4915243;28;20043;-77
2021/11/17 05:53:54;;;;;;;40.33;13.38;;;4.50;99.90;;;2.81;100.00;100726.34;4913311;28;20058;-76
2021/11/17 05:56:26;;;;;;;41.70;13.07;;;4.50;99.90;;;2.78;100.00;100705.56;4923473;28;20595;-77
2021/11/17 05:59:25;;;;;;;37.55;13.13;;;4.50;99.90;;;2.76;100.00;100711.69;4935017;28;20058;-76
2021/11/17 06:02:00;;;;;;;34.75;11.32;;;4.40;99.90;;;2.73;100.00;100711.72;4942118;28;20499;-77
2021/11/17 06:04:26;;;;;;;30.23;9.55;;;4.40;99.90;;;2.69;100.00;100704.84;4927586;28;20032;-77
2021/11/17 06:06:52;;;;;;;30.02;10.25;;;4.40;99.90;;;2.72;100.00;100702.19;4903569;28;20456;-76
2021/11/17 06:09:18;;;;;;;28.80;10.00;;;4.40;99.90;;;2.68;100.00;100701.41;4913741;28;20118;-76
2021/11/17 06:11:50;;;;;;;30.20;9.70;;;4.30;99.90;;;2.65;100.00;100699.69;4926255;28;20383;-76
2021/11/17 06:14:25;;;;;;;30.23;9.40;;;4.30;99.90;;;2.67;100.00;100702.28;4894403;28;20083;-76
2021/11/17 06:16:57;;;;;;;28.50;9.07;;;4.30;99.90;;;2.67;100.00;100710.91;4912073;28;20140;-77
2021/11/17 06:19:28;;;;;;;23.95;8.60;;;4.30;99.90;;;2.63;100.00;100700.59;4915580;28;20506;-76
2021/11/17 06:21:56;;;;;;;27.30;8.93;;;4.30;99.90;;;2.64;100.00;100694.53;4912501;28;20038;-76
2021/11/17 06:24:25;;;;;;;27.58;9.70;;;4.30;99.90;;;2.62;100.00;100715.34;4922445;28;20031;-76
2021/11/17 06:26:52;;;;;;;24.13;8.73;;;4.30;99.90;;;2.64;100.00;100713.56;4939231;28;20041;-76
2021/11/17 06:29:36;;;;;;;24.77;8.98;;;4.30;99.90;;;2.64;100.00;100721.38;4926717;28;20065;-77
2021/11/17 06:32:04;;;;;;;18.77;8.00;;;4.30;99.90;;;2.59;100.00;100719.72;4931763;28;20042;-76
2021/11/17 06:34:34;;;;;;;26.48;9.30;;;4.30;99.90;;;2.58;100.00;100712.81;4899995;28;20043;-76
2021/11/17 06:37:12;;;;;;;26.70;12.77;;;4.30;99.90;;;2.57;100.00;100718.88;4928190;28;20046;-77
2021/11/17 06:39:43;;;;;;;27.05;9.43;;;4.20;99.90;;;2.55;100.00;100713.72;4929099;28;20030;-77
2021/11/17 06:42:22;;;;;;;24.50;8.98;;;4.20;99.90;;;2.53;100.00;100714.59;4907620;28;20098;-76
2021/11/17 06:44:48;;;;;;;21.38;8.48;;;4.20;99.90;;;2.49;100.00;100724.19;4938404;28;20047;-76
2021/11/17 06:47:15;;;;;;;21.30;8.73;;;4.20;99.90;;;2.51;100.00;100724.19;4945956;28;20050;-77
2021/11/17 06:49:42;;;;;;;28.52;10.10;;;4.20;99.90;;;2.50;100.00;100735.44;4939445;28;20047;-76
2021/11/17 06:52:09;;;;;;;22.27;9.07;;;4.20;99.90;;;2.53;100.00;100733.66;4936093;28;20035;-77
2021/11/17 06:54:36;;;;;;;27.17;10.55;;;4.20;99.90;;;2.49;100.00;100726.78;4922484;28;20185;-76
2021/11/17 06:57:02;;;;;;;26.63;10.52;;;4.20;99.90;;;2.47;100.00;100738.94;4921517;28;20093;-76
2021/11/17 06:59:28;;;;;;;24.63;9.20;;;4.10;99.90;;;2.47;100.00;100737.19;4913534;28;20031;-76
2021/11/17 07:01:55;;;;;;;22.65;8.75;;;4.10;99.90;;;2.47;100.00;100736.34;4935718;28;20034;-76
2021/11/17 07:04:21;;;;;;;23.02;8.35;;;4.10;99.90;;;2.41;100.00;100731.22;4920880;28;20034;-76
2021/11/17 07:06:47;;;;;;;25.73;9.07;;;4.10;99.90;;;2.38;100.00;100731.28;4929763;28;20077;-76
2021/11/17 07:09:13;;;;;;;20.65;8.57;;;4.10;99.90;;;2.35;100.00;100720.91;4924683;28;20067;-76
2021/11/17 07:11:42;;;;;;;21.58;9.40;;;4.00;99.90;;;2.37;100.00;100734.72;4945279;28;20101;-76
2021/11/17 07:14:11;;;;;;;25.33;8.40;;;4.10;99.90;;;2.39;100.00;100730.38;4923317;28;20241;-76
2021/11/17 07:16:39;;;;;;;20.52;8.52;;;4.10;99.90;;;2.37;100.00;100734.72;4932658;28;20040;-77
2021/11/17 07:19:09;;;;;;;24.15;11.55;;;4.10;99.90;;;2.39;100.00;100738.19;4938240;28;20114;-76
2021/11/17 07:21:37;;;;;;;20.83;7.78;;;4.10;99.90;;;2.38;100.00;100733.88;4937666;28;20031;-76
2021/11/17 07:24:03;;;;;;;24.85;8.45;;;4.10;99.90;;;2.40;100.00;100737.31;4934938;28;20117;-77
2021/11/17 07:26:30;;;;;;;27.00;8.20;;;4.10;99.90;;;2.43;100.00;100737.25;4908157;28;20043;-76
2021/11/17 07:28:58;;;;;;;25.45;8.55;;;4.10;99.90;;;2.42;100.00;100732.97;4950537;28;20037;-77
2021/11/17 07:31:25;;;;;;;20.02;7.95;;;4.10;99.90;;;2.42;100.00;100731.22;4927480;28;20063;-76
2021/11/17 07:33:51;;;;;;;21.30;8.30;;;4.10;99.90;;;2.42;100.00;100728.63;4930544;28;20046;-76
2021/11/17 07:36:17;;;;;;;26.92;8.45;;;4.10;99.90;;;2.45;100.00;100725.97;4925123;28;20035;-76
2021/11/17 07:38:44;;;;;;;19.88;6.65;;;4.10;99.90;;;2.47;100.00;100725.94;4936276;28;20058;-76
2021/11/17 07:41:10;;;;;;;16.92;6.85;;;4.10;99.90;;;2.47;100.00;100718.16;4912263;28;20114;-76
2021/11/17 07:43:36;;;;;;;17.45;6.57;;;4.20;99.90;;;2.51;100.00;100717.22;4917712;28;20035;-77
2021/11/17 07:46:03;;;;;;;17.83;6.82;;;4.20;99.90;;;2.53;100.00;100699.00;4940124;28;20430;-76
2021/11/17 07:48:31;;;;;;;22.27;7.97;;;4.20;99.90;;;2.53;100.00;100702.47;4936126;28;20134;-76
2021/11/17 07:50:59;;;;;;;20.10;7.35;;;4.20;99.90;;;2.51;100.00;100699.03;4928557;28;20023;-76
2021/11/17 07:53:27;;;;;;;17.02;7.35;;;4.20;99.90;;;2.50;100.00;100712.91;4929504;28;20130;-77
2021/11/17 07:55:57;;;;;;;17.90;8.48;;;4.20;99.90;;;2.52;100.00;100708.53;4914069;28;20098;-76
2021/11/17 07:58:27;;;;;;;20.10;6.75;;;4.20;99.90;;;2.50;100.00;100707.69;4915548;28;20035;-76
2021/11/17 08:00:57;;;;;;;16.95;6.55;;;4.20;99.90;;;2.52;100.00;100707.69;4916921;28;20035;-76
2021/11/17 08:03:26;;;;;;;22.02;6.72;;;4.20;99.90;;;2.52;100.00;100703.34;4915205;28;20047;-76
2021/11/17 08:05:56;;;;;;;17.70;7.28;;;4.20;99.90;;;2.55;100.00;100708.53;4933706;28;20403;-77
2021/11/17 08:08:24;;;;;;;15.65;5.97;;;4.30;99.90;;;2.62;100.00;100720.53;4954003;28;20030;-76
2021/11/17 08:10:51;;;;;;;19.33;6.35;;;4.30;99.90;;;2.61;100.00;100717.94;4937687;28;20403;-77
2021/11/17 08:13:20;;;;;;;17.45;6.20;;;4.30;99.90;;;2.59;100.00;100723.19;4910349;28;20089;-76
2021/11/17 08:15:46;;;;;;;15.13;5.85;;;4.30;99.90;;;2.59;100.00;100719.72;4921977;28;20023;-76
2021/11/17 08:18:12;;;;;;;17.05;6.60;;;4.30;99.90;;;2.62;100.00;100720.53;4935056;28;20031;-76
2021/11/17 08:20:38;;;;;;;13.65;5.70;;;4.30;99.90;;;2.61;100.00;100730.94;4918813;28;20059;-76
2021/11/17 08:23:04;;;;;;;16.90;5.65;;;4.30;99.90;;;2.61;100.00;100724.03;4928019;28;20093;-76
2021/11/17 08:25:36;;;;;;;16.15;6.20;;;4.30;99.90;;;2.59;100.00;100718.00;4905406;28;20126;-76
2021/11/17 08:28:03;;;;;;;17.33;5.85;;;;;;;2.60;100.00;100727.50;4939565;28;20035;-77
2021/11/17 08:30:34;;;;;;;18.58;6.18;;;4.20;99.90;;;2.54;100.00;100718.94;4939927;28;20521;-76
2021/11/17 08:33:04;;;;;;;14.60;5.80;;;4.20;99.90;;;2.53;100.00;100720.69;4932594;28;20529;-76
2021/11/17 08:35:31;;;;;;;16.63;6.28;;;4.20;99.90;;;2.53;100.00;100714.59;4935683;28;20117;-76
2021/11/17 08:37:59;;;;;;;23.85;7.18;;;4.20;99.90;;;2.54;100.00;100717.19;4925802;28;20039;-76
2021/11/17 08:40:42;;;;;;;19.27;6.63;;;4.20;99.90;;;2.55;100.00;100724.13;4919907;28;20027;-77
2021/11/17 08:43:09;;;;;;;18.70;6.60;;;4.20;99.90;;;2.52;100.00;100720.69;4892898;28;20028;-76
2021/11/17 08:45:38;;;;;;;21.75;5.88;;;4.20;99.90;;;2.55;100.00;100739.72;4926660;28;20487;-76
2021/11/17 08:48:06;;;;;;;17.75;6.03;;;4.20;99.90;;;2.56;100.00;100737.97;4911934;28;20125;-77
2021/11/17 08:50:34;;;;;;;19.30;6.55;;;4.20;99.90;;;2.49;100.00;100729.38;4905858;28;20063;-77
2021/11/17 08:53:02;;;;;;;15.38;5.93;;;4.20;99.90;;;2.52;100.00;100733.69;4923098;28;20055;-77
2021/11/17 08:55:33;;;;;;;16.65;5.53;;;4.10;99.90;;;2.47;100.00;100736.34;4927713;28;20038;-76
2021/11/17 08:58:01;;;;;;;34.08;30.33;;;4.10;99.90;;;2.42;100.00;100738.16;4919509;28;20026;-76
2021/11/17 09:00:29;;;;;;;21.05;10.60;;;4.10;99.90;;;2.39;100.00;100727.78;4922140;28;20039;-76
2021/11/17 09:02:59;;;;;;;21.20;11.30;;;4.10;99.90;;;2.37;100.00;100724.34;4905036;28;20038;-76
2021/11/17 09:05:59;;;;;;;19.10;10.90;;;4.00;99.90;;;2.36;100.00;100717.44;4903695;28;20038;-76
2021/11/17 09:08:28;;;;;;;14.60;9.20;;;4.10;99.90;;;2.35;100.00;100732.16;4904980;28;20723;-77
2021/11/17 09:11:18;;;;;;;20.98;10.38;;;4.10;99.90;;;2.39;100.00;100715.63;4886195;28;20090;-76
2021/11/17 09:13:46;;;;;;;15.80;9.70;;;4.10;99.90;;;2.41;100.00;100741.63;4906505;28;20047;-76
2021/11/17 09:16:30;;;;;;;16.95;8.88;;;4.10;99.90;;;2.47;100.00;100788.31;4875372;28;20579;-76
2021/11/17 09:19:20;;;;;;;19.67;9.20;;;4.20;99.90;;;2.52;100.00;100786.53;4895049;28;20403;-76
2021/11/17 09:21:49;;;;;;;17.23;9.27;;;4.20;99.90;;;2.55;100.00;100801.22;4906838;28;20082;-77
2021/11/17 09:24:27;;;;;;;14.02;7.20;;;4.20;99.90;;;2.56;100.00;100789.94;4892377;28;20035;-76
2021/11/17 09:27:15;;;;;;;13.63;7.93;;;4.20;99.90;;;2.59;100.00;100774.31;4953741;28;20053;-76
2021/11/17 09:29:50;;;;;;;13.63;7.40;;;4.30;99.90;;;2.62;100.00;100772.53;4888321;28;20031;-77
2021/11/17 09:32:24;;;;;;;14.70;7.10;;;4.30;99.90;;;2.71;100.00;100770.69;4914305;28;20054;-76
2021/11/17 09:35:22;;;;;;;11.73;6.93;;;4.30;99.90;;;2.67;100.00;100749.91;4899462;28;20043;-77
2021/11/17 09:38:10;;;;;;;14.73;7.82;;;4.30;99.90;;;2.72;100.00;100736.00;4883360;28;20051;-77
2021/11/17 09:41:18;;;;;;;8.98;5.25;;;4.30;99.90;;;2.72;100.00;100703.09;4906052;28;20042;-77
2021/11/17 09:43:51;;;;;;;;;;;4.30;99.90;;;2.79;100.00;100691.69;4897179;28;20035;-77
2021/11/17 09:46:29;;;;;;;9.18;4.35;;;4.40;99.90;;;2.75;100.00;100679.63;4896514;28;19926;-76
2021/11/17 09:49:44;;;;;;;8.70;4.60;;;4.40;99.90;;;2.73;100.00;100675.34;4877828;28;20122;-77
2021/11/17 09:52:38;;;;;;;8.40;4.88;;;4.40;99.90;;;2.71;100.00;100687.50;4889072;28;20039;-77
2021/11/17 09:56:12;;;;;;;8.43;4.72;;;4.40;99.90;;;2.73;100.00;100685.72;4898245;28;20538;-77
2021/11/17 09:58:59;;;;;;;7.53;6.72;;;4.40;99.90;;;2.65;100.00;100672.84;4911040;28;20122;-77
2021/11/17 10:02:20;;;;;;;6.88;5.32;;;4.30;99.90;;;2.67;100.00;100677.13;4872827;28;20044;-77
2021/11/17 10:06:17;;;;;;;10.00;6.72;;;4.30;99.90;;;2.69;100.00;100684.91;4892171;28;20035;-76
2021/11/17 10:09:24;;;;;;;9.32;4.30;;;4.40;99.90;;;2.69;100.00;100684.06;4909348;28;20047;-77
2021/11/17 10:15:45;;;;;;;8.80;3.50;;;4.30;99.90;;;2.58;100.00;100682.47;4897730;28;20174;-77
2021/11/17 10:19:50;;;;;;;10.60;3.42;;;4.20;99.90;;;2.53;100.00;100673.88;4904037;28;20437;-77
2021/11/17 10:22:40;;;;;;;9.23;3.50;;;4.20;99.90;;;2.47;100.00;100674.81;4912112;28;20058;-77
2021/11/17 10:26:27;;;;;;;7.30;2.85;;;4.10;99.90;;;2.45;100.00;100670.53;4902319;28;20043;-76
2021/11/17 10:29:43;;;;;;;6.60;3.15;;;4.20;99.90;;;2.58;100.00;100699.81;4914031;28;20051;-76
2021/11/17 10:32:54;;;;;;;7.32;3.22;;;4.20;99.90;;;2.55;100.00;100705.91;4879161;28;20113;-77
2021/11/17 10:36:04;;;;;;;6.80;3.13;;;4.20;99.90;;;2.59;100.00;100709.31;4879882;28;20142;-77
2021/11/17 10:39:36;;;;;;;8.25;3.47;;;4.20;99.90;;;2.44;100.00;100705.19;4890863;28;20031;-77
2021/11/17 10:42:43;;;;;;;9.60;4.18;;;4.20;99.90;;;2.45;100.00;100707.78;4897612;28;20040;-76
2021/11/17 10:45:33;;;;;;;9.50;3.92;;;4.10;99.90;;;2.45;100.00;100707.78;4894769;28;20042;-77
2021/11/17 10:48:42;;;;;;;6.47;3.47;;;4.20;99.90;;;2.52;100.00;100708.53;4905700;28;20054;-76
2021/11/17 10:52:05;;;;;;;8.98;3.60;;;4.20;99.90;;;2.52;100.00;100708.53;4896415;28;20093;-76
2021/11/17 10:54:57;;;;;;;9.30;4.20;;;4.20;99.90;;;2.54;100.00;100704.19;4887877;28;20038;-77
2021/11/17 10:57:49;;;;;;;11.25;4.38;;;4.20;99.90;;;2.51;100.00;100690.38;4873074;28;20399;-76
2021/11/17 11:00:58;;;;;;;13.50;4.13;;;4.20;99.90;;;2.56;100.00;100694.63;4884272;28;20058;-76
2021/11/17 11:04:23;;;;;;;11.10;4.22;;;4.30;99.90;;;2.63;100.00;100704.03;4894292;28;20046;-76
2021/11/17 11:07:48;;;;;;;9.85;4.15;;;4.30;99.90;;;2.62;100.00;100709.28;4902442;28;20372;-77
2021/11/17 11:10:46;;;;;;;12.07;4.10;;;4.30;99.90;;;2.61;100.00;100708.44;4914384;28;21182;-77
2021/11/17 11:13:22;;;;;;;10.90;4.00;;;4.30;99.90;;;2.68;100.00;100704.00;4905445;28;20361;-77
2021/11/17 11:15:55;;;;;;;12.77;4.78;;;4.30;99.90;;;2.66;100.00;100706.63;4906033;28;20035;-77
2021/11/17 11:18:50;;;;;;;12.80;4.78;;;4.30;99.90;;;2.69;100.00;100697.06;4887145;28;20028;-79
2021/11/17 11:21:38;;;;;;;10.32;4.85;;;4.40;99.90;;;2.72;100.00;100694.41;4901069;28;20109;-79
2021/11/17 11:24:49;;;;;;;11.88;4.57;;;4.40;99.90;;;2.78;100.00;100691.72;4905311;28;20019;-77
2021/11/17 11:27:17;;;;;;;10.88;4.28;;;4.50;99.90;;;2.83;100.00;100684.69;4843407;29;20052;-79
2021/11/17 11:30:12;;;;;;;15.63;5.18;;;4.50;99.90;;;2.86;100.00;100659.50;4890288;28;20118;-78
2021/11/17 11:32:38;;;;;;;11.30;4.07;;;4.60;99.90;;;2.98;100.00;100681.00;4876109;28;20057;-79
2021/11/17 11:35:07;;;;;;;12.27;4.80;;;4.60;99.90;;;3.03;100.00;100672.25;4909554;28;20435;-79
2021/11/17 11:37:38;;;;;;;12.23;4.53;;;4.70;99.90;;;3.12;100.00;100673.84;4880135;28;20131;-79
2021/11/17 11:40:07;;;;;;;8.85;4.15;;;4.70;99.90;;;3.11;100.00;100666.03;4949786;28;20073;-77
2021/11/17 11:42:46;;;;;;;11.25;3.80;;;4.80;99.90;;;3.15;100.00;100670.31;4937968;28;20093;-77
2021/11/17 11:45:27;;;;;;;9.70;3.72;;;4.70;99.90;;;3.05;100.00;100651.41;4903461;28;20031;-77
2021/11/17 11:48:33;;;;;;;8.95;4.10;;;4.70;99.90;;;3.05;100.00;100647.06;4933420;28;20553;-77
2021/11/17 11:51:22;;;;;;;10.15;4.63;;;4.70;99.90;;;3.05;100.00;100636.66;4935373;28;20039;-77
2021/11/17 11:54:19;;;;;;;11.68;4.78;;;4.70;99.90;;;3.08;100.00;100647.00;4890729;28;20395;-77
2021/11/17 11:57:13;;;;;;;7.97;3.72;;;4.80;99.90;;;3.20;100.00;100645.09;4944389;28;20027;-78
2021/11/17 11:59:41;;;;;;;13.05;4.43;;;4.90;99.90;;;3.32;100.00;100649.22;4919946;28;20031;-77
2021/11/17 12:02:19;;;;;;;9.02;3.90;;;5.00;99.90;;;3.41;100.00;100662.94;4938336;28;20082;-77
2021/11/17 12:04:51;;;;;;;9.27;4.22;;;5.00;99.90;;;3.43;100.00;100666.34;4909150;28;20011;-77
2021/11/17 12:07:32;;;;;;;9.23;3.95;;;5.10;99.90;;;3.43;100.00;100655.06;4893062;28;20051;-77
2021/11/17 12:10:37;;;;;;;12.52;4.50;;;5.00;99.90;;;3.40;100.00;100640.38;4909126;28;20038;-77
2021/11/17 12:13:27;;;;;;;8.48;3.28;;;5.00;99.90;;;3.41;100.00;100639.50;4954124;28;20035;-77
2021/11/17 12:15:58;;;;;;;7.65;3.38;;;5.00;99.90;;;3.40;100.00;100642.97;4923817;28;20038;-77
2021/11/17 12:18:25;;;;;;;5.28;2.92;;;5.00;99.90;;;3.39;100.00;100641.28;4934851;28;20185;-77
2021/11/17 12:21:19;;;;;;;5.38;3.17;;;5.00;99.90;;;3.43;100.00;100637.69;4936560;28;20479;-76
2021/11/17 12:24:06;;;;;;;5.32;3.10;;;5.10;99.90;;;3.49;100.00;100636.75;4908491;28;20081;-77
2021/11/17 12:26:34;;;;;;;8.55;3.50;;;5.10;99.90;;;3.49;100.00;100641.94;4934803;28;20117;-77
2021/11/17 12:29:09;;;;;;;6.75;3.22;;;5.10;99.90;;;3.52;100.00;100643.63;4929024;28;20027;-77
2021/11/17 12:31:52;;;;;;;5.97;3.42;;;5.10;99.90;;;3.49;100.00;100637.59;4929005;28;20519;-77
2021/11/17 12:34:28;;;;;;;6.95;4.32;;;5.10;99.90;;;3.43;100.00;100631.66;4919929;28;20034;-77
2021/11/17 12:37:00;;;;;;;8.85;3.40;;;5.00;99.90;;;3.41;100.00;100620.41;4906529;28;20043;-77
2021/11/17 12:39:36;;;;;;;8.57;3.67;;;5.00;99.90;;;3.41;100.00;100612.59;4898403;28;20058;-77
2021/11/17 12:42:08;;;;;;;8.85;3.88;;;5.00;99.90;;;3.43;100.00;100610.81;4920220;28;20138;-76
2021/11/17 12:44:45;;;;;;;8.10;3.63;;;5.10;99.90;;;3.41;100.00;100599.56;4925050;28;20038;-77
2021/11/17 12:47:18;;;;;;;9.68;3.88;;;5.00;99.90;;;3.40;100.00;100600.47;4934175;28;20035;-77
2021/11/17 12:50:09;;;;;;;10.95;3.90;;;5.00;99.90;;;3.42;100.00;100596.09;4932162;28;20041;-77
2021/11/17 12:52:52;;;;;;;8.20;3.65;;;5.00;99.90;;;3.42;100.00;100601.31;4927203;28;20055;-76
2021/11/17 12:55:28;;;;;;;9.80;3.97;;;5.10;99.90;;;3.46;100.00;100600.38;4886051;28;20078;-76
2021/11/17 12:58:36;;;;;;;7.75;3.55;;;5.10;99.90;;;3.44;100.00;100596.94;4898102;28;20507;-76
2021/11/17 13:01:10;;;;;;;11.73;5.57;;;5.10;99.90;;;3.46;100.00;100593.41;4920960;28;20035;-76
2021/11/17 13:03:47;;;;;;;10.90;5.28;;;5.10;99.90;;;3.44;100.00;100592.56;4945461;28;20503;-77
2021/11/17 13:06:33;;;;;;;10.57;4.00;;;5.10;99.90;;;3.44;100.00;100582.16;4920647;28;20108;-76
2021/11/17 13:09:35;;;;;;;11.27;3.70;;;5.00;99.90;;;3.46;100.00;100576.94;4948609;28;20043;-77
2021/11/17 13:12:03;;;;;;;8.90;3.85;;;5.10;99.90;;;3.44;100.00;100584.78;4911150;28;20094;-77
2021/11/17 13:14:37;;;;;;;13.45;4.55;;;5.10;99.90;;;3.46;100.00;100583.00;4916344;28;20047;-77
2021/11/17 13:17:25;;;;;;;9.75;4.18;;;5.10;99.90;;;3.44;100.00;100584.78;4942567;28;20027;-77
2021/11/17 13:19:54;;;;;;;8.63;4.10;;;5.10;99.90;;;3.43;100.00;100580.44;4942868;28;20491;-77
2021/11/17 13:22:28;;;;;;;10.05;4.28;;;5.10;99.90;;;3.44;100.00;100579.56;4909024;28;20070;-76
2021/11/17 13:25:50;;;;;;;10.65;4.50;;;5.10;99.90;;;3.44;100.00;100579.56;4921542;28;20038;-77
2021/11/17 13:28:39;;;;;;;8.80;3.95;;;5.10;99.90;;;3.44;100.00;100582.16;4909415;28;20039;-76
2021/11/17 13:31:32;;;;;;;7.82;4.00;;;5.10;99.90;;;3.47;100.00;100578.63;4943789;28;20035;-77
2021/11/17 13:34:28;;;;;;;14.65;4.25;;;5.10;99.90;;;3.48;100.00;100576.00;4932283;28;20049;-76
2021/11/17 13:37:24;;;;;;;12.35;4.28;;;5.10;99.90;;;3.45;100.00;100570.00;4928154;28;20548;-76
2021/11/17 13:40:09;;;;;;;14.38;4.43;;;5.10;99.90;;;3.47;100.00;100574.28;4908677;28;20980;-76
2021/11/17 13:42:44;;;;;;;10.52;4.25;;;5.10;99.90;;;3.50;100.00;100573.38;4927144;28;24392;-77
2021/11/17 13:45:18;;;;;;;14.95;4.78;;;5.10;99.90;;;3.48;100.00;100568.22;4925820;28;20023;-76
2021/11/17 13:47:45;;;;;;;11.80;4.82;;;5.10;99.90;;;3.51;100.00;100563.81;4914534;28;20039;-76
2021/11/17 13:50:16;;;;;;;13.68;4.25;;;5.20;99.90;;;3.54;100.00;100571.56;4936520;28;20066;-77
2021/11/17 13:52:46;;;;;;;10.77;4.75;;;5.20;99.90;;;3.59;100.00;100578.41;4919034;28;20098;-77